Sun Valley, Nevada
Current Conditions -  °F | °C
As of 4:55 PM on Monday 22 Dec 2014 (Local Time) from KRNO Reporting Station
Scattered Clouds Scattered Clouds  
Wind Chill: 54°   Ceiling: Unl
Heat Index: 54°   Visibility: 10mi
Dew Point: 37°   Wind: 0mph
Humidity: 53%   Direction: NA
Pressure: 30.3"   Gusts: NA
Location:  39.59°N, 119.77°W
Report Text: KRNO 230055Z 00000KT 10SM FEW050 SCT090 12/03 A3030 RMK AO2 SLP250 T01220028
Loading
Personal Weather Stations






























Interactive Weather Map New forecast layout! Learn more

10-Day Weather Forecast

Advertisements
Track Severe Weather on mobile